sensor_id;sensor_type;location;lat;lon;timestamp;P1;durP1;ratioP1;P2;durP2;ratioP2
67715;SDS011;54508;43.238;25.306;2022-12-19T00:03:29;16.55;;;9.90;;
67715;SDS011;54508;43.238;25.306;2022-12-19T00:05:54;17.93;;;10.00;;
67715;SDS011;54508;43.238;25.306;2022-12-19T00:08:20;15.83;;;9.53;;
67715;SDS011;54508;43.238;25.306;2022-12-19T00:10:55;16.02;;;9.80;;
67715;SDS011;54508;43.238;25.306;2022-12-19T00:13:22;17.77;;;10.83;;
67715;SDS011;54508;43.238;25.306;2022-12-19T00:15:47;18.27;;;10.32;;
67715;SDS011;54508;43.238;25.306;2022-12-19T00:18:13;17.10;;;10.00;;
67715;SDS011;54508;43.238;25.306;2022-12-19T00:20:38;18.90;;;10.70;;
67715;SDS011;54508;43.238;25.306;2022-12-19T00:23:04;19.25;;;10.48;;
67715;SDS011;54508;43.238;25.306;2022-12-19T00:25:29;18.47;;;10.63;;
67715;SDS011;54508;43.238;25.306;2022-12-19T00:27:55;18.00;;;10.03;;
67715;SDS011;54508;43.238;25.306;2022-12-19T00:30:20;16.50;;;10.07;;
67715;SDS011;54508;43.238;25.306;2022-12-19T00:32:45;17.00;;;10.00;;
67715;SDS011;54508;43.238;25.306;2022-12-19T00:35:11;17.98;;;10.40;;
67715;SDS011;54508;43.238;25.306;2022-12-19T00:37:37;18.88;;;10.27;;
67715;SDS011;54508;43.238;25.306;2022-12-19T00:40:03;16.25;;;9.98;;
67715;SDS011;54508;43.238;25.306;2022-12-19T00:42:29;17.02;;;10.60;;
67715;SDS011;54508;43.238;25.306;2022-12-19T00:44:55;16.70;;;10.07;;
67715;SDS011;54508;43.238;25.306;2022-12-19T00:47:21;16.92;;;10.00;;
67715;SDS011;54508;43.238;25.306;2022-12-19T00:49:46;19.70;;;10.20;;
67715;SDS011;54508;43.238;25.306;2022-12-19T00:52:11;16.50;;;9.90;;
67715;SDS011;54508;43.238;25.306;2022-12-19T00:54:37;16.73;;;10.17;;
67715;SDS011;54508;43.238;25.306;2022-12-19T00:57:02;16.77;;;10.30;;
67715;SDS011;54508;43.238;25.306;2022-12-19T00:59:28;18.03;;;10.23;;
67715;SDS011;54508;43.238;25.306;2022-12-19T01:01:53;16.40;;;9.80;;
67715;SDS011;54508;43.238;25.306;2022-12-19T01:04:19;14.77;;;9.10;;
67715;SDS011;54508;43.238;25.306;2022-12-19T01:06:44;17.35;;;10.00;;
67715;SDS011;54508;43.238;25.306;2022-12-19T01:09:10;17.88;;;10.20;;
67715;SDS011;54508;43.238;25.306;2022-12-19T01:11:41;18.92;;;10.38;;
67715;SDS011;54508;43.238;25.306;2022-12-19T01:14:30;18.42;;;10.18;;
67715;SDS011;54508;43.238;25.306;2022-12-19T01:16:56;17.05;;;10.00;;
67715;SDS011;54508;43.238;25.306;2022-12-19T01:19:21;17.77;;;10.70;;
67715;SDS011;54508;43.238;25.306;2022-12-19T01:21:46;16.58;;;9.95;;
67715;SDS011;54508;43.238;25.306;2022-12-19T01:24:12;16.98;;;9.65;;
67715;SDS011;54508;43.238;25.306;2022-12-19T01:26:37;15.80;;;9.43;;
67715;SDS011;54508;43.238;25.306;2022-12-19T01:29:03;19.37;;;10.93;;
67715;SDS011;54508;43.238;25.306;2022-12-19T01:31:29;18.30;;;10.80;;
67715;SDS011;54508;43.238;25.306;2022-12-19T01:33:54;17.23;;;10.17;;
67715;SDS011;54508;43.238;25.306;2022-12-19T01:36:20;19.55;;;10.77;;
67715;SDS011;54508;43.238;25.306;2022-12-19T01:38:45;20.07;;;11.23;;
67715;SDS011;54508;43.238;25.306;2022-12-19T01:41:11;16.40;;;10.07;;
67715;SDS011;54508;43.238;25.306;2022-12-19T01:46:39;18.15;;;10.82;;
67715;SDS011;54508;43.238;25.306;2022-12-19T01:49:28;20.83;;;11.02;;
67715;SDS011;54508;43.238;25.306;2022-12-19T01:51:57;19.20;;;10.43;;
67715;SDS011;54508;43.238;25.306;2022-12-19T01:54:35;18.43;;;11.00;;
67715;SDS011;54508;43.238;25.306;2022-12-19T01:57:08;17.30;;;10.32;;
67715;SDS011;54508;43.238;25.306;2022-12-19T01:59:47;18.30;;;11.60;;
67715;SDS011;54508;43.238;25.306;2022-12-19T02:02:28;20.60;;;10.57;;
67715;SDS011;54508;43.238;25.306;2022-12-19T02:04:54;19.63;;;11.35;;
67715;SDS011;54508;43.238;25.306;2022-12-19T02:07:19;19.23;;;11.30;;
67715;SDS011;54508;43.238;25.306;2022-12-19T02:09:47;19.90;;;11.25;;
67715;SDS011;54508;43.238;25.306;2022-12-19T02:12:15;20.30;;;12.20;;
67715;SDS011;54508;43.238;25.306;2022-12-19T02:14:46;19.20;;;10.98;;
67715;SDS011;54508;43.238;25.306;2022-12-19T02:29:18;19.75;;;10.77;;
67715;SDS011;54508;43.238;25.306;2022-12-19T02:34:47;20.45;;;11.57;;
67715;SDS011;54508;43.238;25.306;2022-12-19T02:37:19;18.63;;;10.23;;
67715;SDS011;54508;43.238;25.306;2022-12-19T02:39:49;18.48;;;10.93;;
67715;SDS011;54508;43.238;25.306;2022-12-19T02:42:27;18.88;;;10.85;;
67715;SDS011;54508;43.238;25.306;2022-12-19T02:45:00;18.52;;;10.90;;
67715;SDS011;54508;43.238;25.306;2022-12-19T02:47:27;17.17;;;10.35;;
67715;SDS011;54508;43.238;25.306;2022-12-19T02:49:54;19.57;;;11.67;;
67715;SDS011;54508;43.238;25.306;2022-12-19T02:54:48;19.37;;;11.07;;
67715;SDS011;54508;43.238;25.306;2022-12-19T03:02:54;21.70;;;10.85;;
67715;SDS011;54508;43.238;25.306;2022-12-19T03:11:05;18.93;;;10.60;;
67715;SDS011;54508;43.238;25.306;2022-12-19T03:16:19;19.48;;;11.43;;
67715;SDS011;54508;43.238;25.306;2022-12-19T03:18:45;20.37;;;10.67;;
67715;SDS011;54508;43.238;25.306;2022-12-19T03:23:42;21.45;;;12.00;;
67715;SDS011;54508;43.238;25.306;2022-12-19T03:26:15;20.43;;;11.63;;
67715;SDS011;54508;43.238;25.306;2022-12-19T03:28:45;20.92;;;11.48;;
67715;SDS011;54508;43.238;25.306;2022-12-19T03:31:33;17.85;;;10.95;;
67715;SDS011;54508;43.238;25.306;2022-12-19T03:34:01;19.45;;;10.60;;
67715;SDS011;54508;43.238;25.306;2022-12-19T03:36:31;19.20;;;11.65;;
67715;SDS011;54508;43.238;25.306;2022-12-19T03:38:59;19.13;;;11.03;;
67715;SDS011;54508;43.238;25.306;2022-12-19T03:41:26;19.75;;;11.20;;
67715;SDS011;54508;43.238;25.306;2022-12-19T03:44:15;20.70;;;11.55;;
67715;SDS011;54508;43.238;25.306;2022-12-19T03:46:50;20.02;;;11.25;;
67715;SDS011;54508;43.238;25.306;2022-12-19T03:49:22;19.52;;;11.07;;
67715;SDS011;54508;43.238;25.306;2022-12-19T03:51:58;18.50;;;11.07;;
67715;SDS011;54508;43.238;25.306;2022-12-19T03:54:33;19.00;;;11.38;;
67715;SDS011;54508;43.238;25.306;2022-12-19T03:57:20;19.92;;;11.90;;
67715;SDS011;54508;43.238;25.306;2022-12-19T03:59:51;20.43;;;11.97;;
67715;SDS011;54508;43.238;25.306;2022-12-19T04:02:23;21.05;;;11.93;;
67715;SDS011;54508;43.238;25.306;2022-12-19T04:04:59;19.20;;;11.52;;
67715;SDS011;54508;43.238;25.306;2022-12-19T04:07:27;22.83;;;11.75;;
67715;SDS011;54508;43.238;25.306;2022-12-19T04:09:56;19.10;;;10.87;;
67715;SDS011;54508;43.238;25.306;2022-12-19T04:12:27;21.77;;;11.77;;
67715;SDS011;54508;43.238;25.306;2022-12-19T04:14:56;19.13;;;11.75;;
67715;SDS011;54508;43.238;25.306;2022-12-19T04:17:24;18.57;;;10.50;;
67715;SDS011;54508;43.238;25.306;2022-12-19T04:22:26;19.35;;;10.85;;
67715;SDS011;54508;43.238;25.306;2022-12-19T04:24:55;21.30;;;11.95;;
67715;SDS011;54508;43.238;25.306;2022-12-19T04:27:22;21.77;;;11.38;;
67715;SDS011;54508;43.238;25.306;2022-12-19T04:29:50;20.03;;;11.43;;
67715;SDS011;54508;43.238;25.306;2022-12-19T04:32:16;21.98;;;11.45;;
67715;SDS011;54508;43.238;25.306;2022-12-19T04:34:47;21.92;;;12.57;;
67715;SDS011;54508;43.238;25.306;2022-12-19T04:37:13;21.63;;;12.02;;
67715;SDS011;54508;43.238;25.306;2022-12-19T04:39:38;22.20;;;12.23;;
67715;SDS011;54508;43.238;25.306;2022-12-19T04:42:04;24.83;;;13.17;;
67715;SDS011;54508;43.238;25.306;2022-12-19T04:44:29;22.50;;;11.70;;
67715;SDS011;54508;43.238;25.306;2022-12-19T04:46:55;19.30;;;11.93;;
67715;SDS011;54508;43.238;25.306;2022-12-19T04:49:20;20.83;;;12.20;;
67715;SDS011;54508;43.238;25.306;2022-12-19T04:51:57;19.10;;;11.40;;
67715;SDS011;54508;43.238;25.306;2022-12-19T04:54:23;19.25;;;11.52;;
67715;SDS011;54508;43.238;25.306;2022-12-19T04:56:48;23.80;;;12.37;;
67715;SDS011;54508;43.238;25.306;2022-12-19T04:59:15;23.38;;;13.45;;
67715;SDS011;54508;43.238;25.306;2022-12-19T05:01:40;22.53;;;12.37;;
67715;SDS011;54508;43.238;25.306;2022-12-19T05:04:06;20.50;;;11.65;;
67715;SDS011;54508;43.238;25.306;2022-12-19T05:06:31;23.73;;;12.43;;
67715;SDS011;54508;43.238;25.306;2022-12-19T05:08:57;23.50;;;12.07;;
67715;SDS011;54508;43.238;25.306;2022-12-19T05:11:22;21.47;;;11.83;;
67715;SDS011;54508;43.238;25.306;2022-12-19T05:13:48;20.63;;;11.43;;
67715;SDS011;54508;43.238;25.306;2022-12-19T05:16:16;22.25;;;12.00;;
67715;SDS011;54508;43.238;25.306;2022-12-19T05:18:42;20.92;;;11.80;;
67715;SDS011;54508;43.238;25.306;2022-12-19T05:21:08;21.40;;;12.40;;
67715;SDS011;54508;43.238;25.306;2022-12-19T05:23:35;24.00;;;12.95;;
67715;SDS011;54508;43.238;25.306;2022-12-19T05:26:01;19.30;;;12.25;;
67715;SDS011;54508;43.238;25.306;2022-12-19T05:28:27;19.80;;;11.95;;
67715;SDS011;54508;43.238;25.306;2022-12-19T05:31:06;19.93;;;11.73;;
67715;SDS011;54508;43.238;25.306;2022-12-19T05:33:33;21.80;;;11.63;;
67715;SDS011;54508;43.238;25.306;2022-12-19T05:35:59;19.48;;;11.55;;
67715;SDS011;54508;43.238;25.306;2022-12-19T05:38:25;25.17;;;12.03;;
67715;SDS011;54508;43.238;25.306;2022-12-19T05:40:51;22.52;;;12.23;;
67715;SDS011;54508;43.238;25.306;2022-12-19T05:43:16;21.10;;;11.90;;
67715;SDS011;54508;43.238;25.306;2022-12-19T05:45:41;24.03;;;12.43;;
67715;SDS011;54508;43.238;25.306;2022-12-19T05:48:07;20.03;;;11.77;;
67715;SDS011;54508;43.238;25.306;2022-12-19T05:50:32;23.58;;;12.10;;
67715;SDS011;54508;43.238;25.306;2022-12-19T05:52:58;20.63;;;11.30;;
67715;SDS011;54508;43.238;25.306;2022-12-19T05:55:23;19.60;;;12.00;;
67715;SDS011;54508;43.238;25.306;2022-12-19T05:57:50;20.90;;;11.50;;
67715;SDS011;54508;43.238;25.306;2022-12-19T06:00:15;21.27;;;12.20;;
67715;SDS011;54508;43.238;25.306;2022-12-19T06:02:52;22.70;;;12.00;;
67715;SDS011;54508;43.238;25.306;2022-12-19T06:05:18;21.60;;;11.13;;
67715;SDS011;54508;43.238;25.306;2022-12-19T06:07:44;22.23;;;11.32;;
67715;SDS011;54508;43.238;25.306;2022-12-19T06:10:10;23.70;;;11.00;;
67715;SDS011;54508;43.238;25.306;2022-12-19T06:12:36;21.23;;;11.82;;
67715;SDS011;54508;43.238;25.306;2022-12-19T06:15:02;19.50;;;11.40;;
67715;SDS011;54508;43.238;25.306;2022-12-19T06:17:28;23.25;;;12.63;;
67715;SDS011;54508;43.238;25.306;2022-12-19T06:19:54;27.50;;;11.43;;
67715;SDS011;54508;43.238;25.306;2022-12-19T06:22:19;21.07;;;12.13;;
67715;SDS011;54508;43.238;25.306;2022-12-19T06:24:44;50.43;;;23.40;;
67715;SDS011;54508;43.238;25.306;2022-12-19T06:27:10;42.67;;;20.60;;
67715;SDS011;54508;43.238;25.306;2022-12-19T06:29:35;37.77;;;19.47;;
67715;SDS011;54508;43.238;25.306;2022-12-19T06:32:01;33.83;;;17.53;;
67715;SDS011;54508;43.238;25.306;2022-12-19T06:34:26;30.90;;;16.47;;
67715;SDS011;54508;43.238;25.306;2022-12-19T06:36:53;25.05;;;14.68;;
67715;SDS011;54508;43.238;25.306;2022-12-19T06:39:19;25.13;;;14.13;;
67715;SDS011;54508;43.238;25.306;2022-12-19T06:41:44;30.15;;;13.75;;
67715;SDS011;54508;43.238;25.306;2022-12-19T06:44:30;26.85;;;12.45;;
67715;SDS011;54508;43.238;25.306;2022-12-19T06:46:55;29.17;;;13.02;;
67715;SDS011;54508;43.238;25.306;2022-12-19T06:49:21;20.02;;;12.05;;
67715;SDS011;54508;43.238;25.306;2022-12-19T06:51:46;22.30;;;12.23;;
67715;SDS011;54508;43.238;25.306;2022-12-19T06:54:12;34.43;;;13.40;;
67715;SDS011;54508;43.238;25.306;2022-12-19T06:56:38;36.30;;;12.93;;
67715;SDS011;54508;43.238;25.306;2022-12-19T06:59:05;28.17;;;11.53;;
67715;SDS011;54508;43.238;25.306;2022-12-19T07:04:17;26.30;;;11.27;;
67715;SDS011;54508;43.238;25.306;2022-12-19T07:06:48;20.55;;;10.68;;
67715;SDS011;54508;43.238;25.306;2022-12-19T07:09:13;20.97;;;10.43;;
67715;SDS011;54508;43.238;25.306;2022-12-19T07:11:39;20.57;;;11.10;;
67715;SDS011;54508;43.238;25.306;2022-12-19T07:14:04;15.93;;;9.57;;
67715;SDS011;54508;43.238;25.306;2022-12-19T07:16:30;31.25;;;11.18;;
67715;SDS011;54508;43.238;25.306;2022-12-19T07:18:55;19.80;;;10.47;;
67715;SDS011;54508;43.238;25.306;2022-12-19T07:21:22;23.55;;;10.05;;
67715;SDS011;54508;43.238;25.306;2022-12-19T07:23:47;21.47;;;11.17;;
67715;SDS011;54508;43.238;25.306;2022-12-19T07:26:13;18.63;;;9.60;;
67715;SDS011;54508;43.238;25.306;2022-12-19T07:28:38;36.40;;;12.63;;
67715;SDS011;54508;43.238;25.306;2022-12-19T07:31:04;28.67;;;10.23;;
67715;SDS011;54508;43.238;25.306;2022-12-19T07:33:30;22.90;;;10.57;;
67715;SDS011;54508;43.238;25.306;2022-12-19T07:35:55;23.40;;;9.97;;
67715;SDS011;54508;43.238;25.306;2022-12-19T07:38:21;21.83;;;9.60;;
67715;SDS011;54508;43.238;25.306;2022-12-19T07:40:46;24.05;;;9.95;;
67715;SDS011;54508;43.238;25.306;2022-12-19T07:43:11;28.90;;;15.43;;
67715;SDS011;54508;43.238;25.306;2022-12-19T07:45:37;31.10;;;17.83;;
67715;SDS011;54508;43.238;25.306;2022-12-19T07:48:03;29.20;;;18.25;;
67715;SDS011;54508;43.238;25.306;2022-12-19T07:50:30;27.70;;;17.27;;
67715;SDS011;54508;43.238;25.306;2022-12-19T07:52:56;26.50;;;16.83;;
67715;SDS011;54508;43.238;25.306;2022-12-19T07:55:22;24.98;;;15.43;;
67715;SDS011;54508;43.238;25.306;2022-12-19T07:57:47;30.67;;;15.20;;
67715;SDS011;54508;43.238;25.306;2022-12-19T08:00:13;23.88;;;13.52;;
67715;SDS011;54508;43.238;25.306;2022-12-19T08:02:39;28.87;;;15.20;;
67715;SDS011;54508;43.238;25.306;2022-12-19T08:05:05;26.33;;;13.75;;
67715;SDS011;54508;43.238;25.306;2022-12-19T08:07:30;24.00;;;12.07;;
67715;SDS011;54508;43.238;25.306;2022-12-19T08:09:56;22.55;;;12.15;;
67715;SDS011;54508;43.238;25.306;2022-12-19T08:12:22;20.97;;;11.60;;
67715;SDS011;54508;43.238;25.306;2022-12-19T08:14:47;19.55;;;10.65;;
67715;SDS011;54508;43.238;25.306;2022-12-19T08:17:13;25.30;;;11.43;;
67715;SDS011;54508;43.238;25.306;2022-12-19T08:19:39;26.75;;;10.95;;
67715;SDS011;54508;43.238;25.306;2022-12-19T08:22:04;19.17;;;10.87;;
67715;SDS011;54508;43.238;25.306;2022-12-19T08:24:30;26.90;;;10.53;;
67715;SDS011;54508;43.238;25.306;2022-12-19T08:26:56;20.77;;;9.80;;
67715;SDS011;54508;43.238;25.306;2022-12-19T08:29:21;21.70;;;10.07;;
67715;SDS011;54508;43.238;25.306;2022-12-19T08:31:47;22.67;;;10.90;;
67715;SDS011;54508;43.238;25.306;2022-12-19T08:34:13;25.23;;;11.30;;
67715;SDS011;54508;43.238;25.306;2022-12-19T08:36:38;16.27;;;10.00;;
67715;SDS011;54508;43.238;25.306;2022-12-19T08:39:04;21.23;;;9.85;;
67715;SDS011;54508;43.238;25.306;2022-12-19T08:41:30;26.30;;;10.33;;
67715;SDS011;54508;43.238;25.306;2022-12-19T08:43:55;23.58;;;10.15;;
67715;SDS011;54508;43.238;25.306;2022-12-19T08:46:21;19.30;;;10.03;;
67715;SDS011;54508;43.238;25.306;2022-12-19T08:48:47;22.88;;;10.98;;
67715;SDS011;54508;43.238;25.306;2022-12-19T08:51:13;17.90;;;10.17;;
67715;SDS011;54508;43.238;25.306;2022-12-19T08:53:41;19.65;;;9.77;;
67715;SDS011;54508;43.238;25.306;2022-12-19T08:56:11;18.35;;;10.25;;
67715;SDS011;54508;43.238;25.306;2022-12-19T08:58:41;21.30;;;9.98;;
67715;SDS011;54508;43.238;25.306;2022-12-19T09:01:08;20.97;;;9.83;;
67715;SDS011;54508;43.238;25.306;2022-12-19T09:03:37;22.58;;;9.02;;
67715;SDS011;54508;43.238;25.306;2022-12-19T09:06:04;19.52;;;9.68;;
67715;SDS011;54508;43.238;25.306;2022-12-19T09:08:31;15.40;;;8.57;;
67715;SDS011;54508;43.238;25.306;2022-12-19T09:10:58;20.95;;;9.30;;
67715;SDS011;54508;43.238;25.306;2022-12-19T09:13:28;17.50;;;9.73;;
67715;SDS011;54508;43.238;25.306;2022-12-19T09:16:10;19.92;;;9.02;;
67715;SDS011;54508;43.238;25.306;2022-12-19T09:18:37;18.83;;;9.80;;
67715;SDS011;54508;43.238;25.306;2022-12-19T09:21:03;17.73;;;9.13;;
67715;SDS011;54508;43.238;25.306;2022-12-19T09:23:29;16.25;;;9.02;;
67715;SDS011;54508;43.238;25.306;2022-12-19T09:25:56;24.40;;;10.05;;
67715;SDS011;54508;43.238;25.306;2022-12-19T09:28:26;29.57;;;12.30;;
67715;SDS011;54508;43.238;25.306;2022-12-19T09:30:59;33.20;;;10.65;;
67715;SDS011;54508;43.238;25.306;2022-12-19T09:33:29;20.67;;;10.60;;
67715;SDS011;54508;43.238;25.306;2022-12-19T09:35:56;21.85;;;11.15;;
67715;SDS011;54508;43.238;25.306;2022-12-19T09:38:22;19.38;;;10.80;;
67715;SDS011;54508;43.238;25.306;2022-12-19T09:43:50;20.80;;;9.82;;
67715;SDS011;54508;43.238;25.306;2022-12-19T09:46:49;23.30;;;10.27;;
67715;SDS011;54508;43.238;25.306;2022-12-19T09:49:23;21.75;;;9.63;;
67715;SDS011;54508;43.238;25.306;2022-12-19T09:54:38;18.15;;;9.30;;
67715;SDS011;54508;43.238;25.306;2022-12-19T10:00:14;17.23;;;9.32;;
67715;SDS011;54508;43.238;25.306;2022-12-19T10:02:56;17.60;;;9.70;;
67715;SDS011;54508;43.238;25.306;2022-12-19T10:08:20;19.63;;;10.20;;
67715;SDS011;54508;43.238;25.306;2022-12-19T10:19:19;18.95;;;8.73;;
67715;SDS011;54508;43.238;25.306;2022-12-19T10:30:55;18.00;;;9.10;;
67715;SDS011;54508;43.238;25.306;2022-12-19T10:33:31;19.60;;;10.18;;
67715;SDS011;54508;43.238;25.306;2022-12-19T10:36:00;17.92;;;9.15;;
67715;SDS011;54508;43.238;25.306;2022-12-19T10:38:44;17.42;;;8.55;;
67715;SDS011;54508;43.238;25.306;2022-12-19T10:41:29;20.00;;;9.15;;
67715;SDS011;54508;43.238;25.306;2022-12-19T10:44:05;19.73;;;10.10;;
67715;SDS011;54508;43.238;25.306;2022-12-19T10:49:17;17.00;;;9.50;;
67715;SDS011;54508;43.238;25.306;2022-12-19T10:52:00;14.88;;;8.70;;
67715;SDS011;54508;43.238;25.306;2022-12-19T10:54:37;17.30;;;9.02;;
67715;SDS011;54508;43.238;25.306;2022-12-19T10:59:52;22.95;;;10.30;;
67715;SDS011;54508;43.238;25.306;2022-12-19T11:02:38;18.33;;;9.68;;
67715;SDS011;54508;43.238;25.306;2022-12-19T11:10:55;23.57;;;10.20;;
67715;SDS011;54508;43.238;25.306;2022-12-19T11:13:28;14.65;;;9.18;;
67715;SDS011;54508;43.238;25.306;2022-12-19T11:16:05;19.33;;;9.68;;
67715;SDS011;54508;43.238;25.306;2022-12-19T11:18:35;17.25;;;9.80;;
67715;SDS011;54508;43.238;25.306;2022-12-19T11:21:18;17.45;;;9.60;;
67715;SDS011;54508;43.238;25.306;2022-12-19T11:29:00;15.77;;;10.27;;
67715;SDS011;54508;43.238;25.306;2022-12-19T11:31:29;15.90;;;8.57;;
67715;SDS011;54508;43.238;25.306;2022-12-19T11:34:00;15.60;;;8.43;;
67715;SDS011;54508;43.238;25.306;2022-12-19T11:36:36;14.30;;;8.95;;
67715;SDS011;54508;43.238;25.306;2022-12-19T11:39:07;18.65;;;8.55;;
67715;SDS011;54508;43.238;25.306;2022-12-19T11:41:41;17.15;;;8.93;;
67715;SDS011;54508;43.238;25.306;2022-12-19T11:44:18;16.73;;;8.65;;
67715;SDS011;54508;43.238;25.306;2022-12-19T11:49:39;16.83;;;8.80;;
67715;SDS011;54508;43.238;25.306;2022-12-19T11:52:23;18.02;;;8.50;;
67715;SDS011;54508;43.238;25.306;2022-12-19T11:55:25;15.88;;;8.80;;
67715;SDS011;54508;43.238;25.306;2022-12-19T11:57:54;18.23;;;9.05;;
67715;SDS011;54508;43.238;25.306;2022-12-19T12:00:22;19.10;;;9.02;;
67715;SDS011;54508;43.238;25.306;2022-12-19T12:10:50;20.77;;;10.55;;
67715;SDS011;54508;43.238;25.306;2022-12-19T12:13:35;16.08;;;10.00;;
67715;SDS011;54508;43.238;25.306;2022-12-19T12:16:10;18.02;;;10.10;;
67715;SDS011;54508;43.238;25.306;2022-12-19T12:21:22;20.05;;;9.90;;
67715;SDS011;54508;43.238;25.306;2022-12-19T12:26:40;20.00;;;9.80;;
67715;SDS011;54508;43.238;25.306;2022-12-19T12:29:26;16.90;;;8.90;;
67715;SDS011;54508;43.238;25.306;2022-12-19T12:45:02;14.48;;;7.63;;
67715;SDS011;54508;43.238;25.306;2022-12-19T12:47:41;18.02;;;7.78;;
67715;SDS011;54508;43.238;25.306;2022-12-19T12:50:07;14.50;;;7.47;;
67715;SDS011;54508;43.238;25.306;2022-12-19T12:52:53;12.05;;;7.00;;
67715;SDS011;54508;43.238;25.306;2022-12-19T12:57:53;14.68;;;7.25;;
67715;SDS011;54508;43.238;25.306;2022-12-19T13:00:29;14.37;;;7.43;;
67715;SDS011;54508;43.238;25.306;2022-12-19T13:03:03;14.05;;;6.78;;
67715;SDS011;54508;43.238;25.306;2022-12-19T13:07:56;11.40;;;6.70;;
67715;SDS011;54508;43.238;25.306;2022-12-19T13:10:23;12.77;;;6.72;;
67715;SDS011;54508;43.238;25.306;2022-12-19T13:13:02;15.18;;;6.25;;
67715;SDS011;54508;43.238;25.306;2022-12-19T13:15:34;10.75;;;6.40;;
67715;SDS011;54508;43.238;25.306;2022-12-19T13:20:55;12.27;;;5.95;;
67715;SDS011;54508;43.238;25.306;2022-12-19T13:26:02;11.95;;;5.65;;
67715;SDS011;54508;43.238;25.306;2022-12-19T13:41:59;12.35;;;7.72;;
67715;SDS011;54508;43.238;25.306;2022-12-19T13:44:46;10.68;;;7.57;;
67715;SDS011;54508;43.238;25.306;2022-12-19T13:47:14;20.23;;;7.75;;
67715;SDS011;54508;43.238;25.306;2022-12-19T13:49:39;13.55;;;7.45;;
67715;SDS011;54508;43.238;25.306;2022-12-19T13:52:08;9.82;;;6.85;;
67715;SDS011;54508;43.238;25.306;2022-12-19T13:54:36;14.00;;;7.82;;
67715;SDS011;54508;43.238;25.306;2022-12-19T13:59:47;13.70;;;7.55;;
67715;SDS011;54508;43.238;25.306;2022-12-19T14:02:17;13.23;;;7.63;;
67715;SDS011;54508;43.238;25.306;2022-12-19T14:04:48;12.77;;;8.25;;
67715;SDS011;54508;43.238;25.306;2022-12-19T14:10:01;17.50;;;7.80;;
67715;SDS011;54508;43.238;25.306;2022-12-19T14:12:30;16.95;;;7.65;;
67715;SDS011;54508;43.238;25.306;2022-12-19T14:15:20;31.70;;;8.98;;
67715;SDS011;54508;43.238;25.306;2022-12-19T14:17:46;28.40;;;8.70;;
67715;SDS011;54508;43.238;25.306;2022-12-19T14:20:17;24.02;;;8.48;;
67715;SDS011;54508;43.238;25.306;2022-12-19T14:22:54;21.88;;;8.07;;
67715;SDS011;54508;43.238;25.306;2022-12-19T14:25:23;23.13;;;8.55;;
67715;SDS011;54508;43.238;25.306;2022-12-19T14:28:19;18.70;;;8.45;;
67715;SDS011;54508;43.238;25.306;2022-12-19T14:30:48;28.60;;;8.50;;
67715;SDS011;54508;43.238;25.306;2022-12-19T14:33:18;20.63;;;9.05;;
67715;SDS011;54508;43.238;25.306;2022-12-19T14:35:50;20.00;;;8.18;;
67715;SDS011;54508;43.238;25.306;2022-12-19T14:38:18;21.55;;;8.98;;
67715;SDS011;54508;43.238;25.306;2022-12-19T14:40:45;16.67;;;7.88;;
67715;SDS011;54508;43.238;25.306;2022-12-19T14:46:11;17.10;;;8.50;;
67715;SDS011;54508;43.238;25.306;2022-12-19T14:48:51;26.08;;;16.98;;
67715;SDS011;54508;43.238;25.306;2022-12-19T14:51:19;25.90;;;13.20;;
67715;SDS011;54508;43.238;25.306;2022-12-19T14:59:34;20.67;;;12.65;;
67715;SDS011;54508;43.238;25.306;2022-12-19T15:07:17;18.23;;;11.68;;
67715;SDS011;54508;43.238;25.306;2022-12-19T15:09:56;19.47;;;11.70;;
67715;SDS011;54508;43.238;25.306;2022-12-19T15:12:25;20.08;;;11.55;;
67715;SDS011;54508;43.238;25.306;2022-12-19T15:15:18;16.10;;;10.95;;
67715;SDS011;54508;43.238;25.306;2022-12-19T15:17:49;19.52;;;10.45;;
67715;SDS011;54508;43.238;25.306;2022-12-19T15:20:16;18.48;;;9.80;;
67715;SDS011;54508;43.238;25.306;2022-12-19T15:22:42;20.27;;;9.97;;
67715;SDS011;54508;43.238;25.306;2022-12-19T15:25:11;20.00;;;10.63;;
67715;SDS011;54508;43.238;25.306;2022-12-19T15:27:44;19.52;;;11.48;;
67715;SDS011;54508;43.238;25.306;2022-12-19T15:30:14;20.42;;;13.00;;
67715;SDS011;54508;43.238;25.306;2022-12-19T15:32:45;23.52;;;12.35;;
67715;SDS011;54508;43.238;25.306;2022-12-19T15:35:13;25.00;;;12.57;;
67715;SDS011;54508;43.238;25.306;2022-12-19T15:37:42;23.25;;;13.20;;
67715;SDS011;54508;43.238;25.306;2022-12-19T15:40:12;21.52;;;12.60;;
67715;SDS011;54508;43.238;25.306;2022-12-19T15:42:39;20.95;;;12.43;;
67715;SDS011;54508;43.238;25.306;2022-12-19T15:45:06;21.23;;;13.10;;
67715;SDS011;54508;43.238;25.306;2022-12-19T15:47:33;24.00;;;12.13;;
67715;SDS011;54508;43.238;25.306;2022-12-19T15:50:00;19.90;;;12.45;;
67715;SDS011;54508;43.238;25.306;2022-12-19T15:52:29;23.27;;;12.13;;
67715;SDS011;54508;43.238;25.306;2022-12-19T15:54:54;18.40;;;12.00;;
67715;SDS011;54508;43.238;25.306;2022-12-19T15:57:35;21.15;;;11.80;;
67715;SDS011;54508;43.238;25.306;2022-12-19T16:00:06;21.33;;;11.23;;
67715;SDS011;54508;43.238;25.306;2022-12-19T16:02:40;22.15;;;11.15;;
67715;SDS011;54508;43.238;25.306;2022-12-19T16:05:06;20.45;;;11.30;;
67715;SDS011;54508;43.238;25.306;2022-12-19T16:07:33;19.25;;;11.40;;
67715;SDS011;54508;43.238;25.306;2022-12-19T16:09:58;18.07;;;10.47;;
67715;SDS011;54508;43.238;25.306;2022-12-19T16:12:25;18.03;;;10.63;;
67715;SDS011;54508;43.238;25.306;2022-12-19T16:14:55;21.10;;;11.00;;
67715;SDS011;54508;43.238;25.306;2022-12-19T16:17:23;16.65;;;9.80;;
67715;SDS011;54508;43.238;25.306;2022-12-19T16:19:49;19.88;;;10.82;;
67715;SDS011;54508;43.238;25.306;2022-12-19T16:22:19;18.85;;;10.60;;
67715;SDS011;54508;43.238;25.306;2022-12-19T16:24:48;20.13;;;11.45;;
67715;SDS011;54508;43.238;25.306;2022-12-19T16:27:20;18.23;;;11.65;;
67715;SDS011;54508;43.238;25.306;2022-12-19T16:29:49;20.08;;;11.43;;
67715;SDS011;54508;43.238;25.306;2022-12-19T16:32:15;21.33;;;11.63;;
67715;SDS011;54508;43.238;25.306;2022-12-19T16:34:41;23.40;;;12.43;;
67715;SDS011;54508;43.238;25.306;2022-12-19T16:37:06;29.58;;;13.10;;
67715;SDS011;54508;43.238;25.306;2022-12-19T16:39:32;28.20;;;13.47;;
67715;SDS011;54508;43.238;25.306;2022-12-19T16:41:57;20.80;;;12.73;;
67715;SDS011;54508;43.238;25.306;2022-12-19T16:44:23;24.60;;;13.27;;
67715;SDS011;54508;43.238;25.306;2022-12-19T16:46:49;22.57;;;13.03;;
67715;SDS011;54508;43.238;25.306;2022-12-19T16:49:16;21.33;;;12.80;;
67715;SDS011;54508;43.238;25.306;2022-12-19T16:51:44;19.35;;;12.75;;
67715;SDS011;54508;43.238;25.306;2022-12-19T16:54:10;23.13;;;13.07;;
67715;SDS011;54508;43.238;25.306;2022-12-19T16:59:30;21.23;;;12.23;;
67715;SDS011;54508;43.238;25.306;2022-12-19T17:02:00;19.88;;;12.48;;
67715;SDS011;54508;43.238;25.306;2022-12-19T17:04:26;18.95;;;11.32;;
67715;SDS011;54508;43.238;25.306;2022-12-19T17:06:53;21.88;;;11.70;;
67715;SDS011;54508;43.238;25.306;2022-12-19T17:09:19;31.53;;;12.63;;
67715;SDS011;54508;43.238;25.306;2022-12-19T17:11:47;35.50;;;12.70;;